Latest Coastal Weather Observations for Ceduna

IDS60701

Issued at 2:11 pm CST Sunday 19 April 2015 (issued every 10 minutes, with the page automatically refreshed every 10 minutes)

About coastal observations | Map of coastal stations | Coastal observations for SA | Marine services | Other Formats
Station Details ID: 018012 Name: CEDUNA AMO Lat: -32.13 Lon: 133.70 Height: 15.3 m
Data from the previous 72 hours. | See also: Recent months at Ceduna
Date/Time
CST
Temp

°C
Wind Pressure Rain
since 9am
mm
Weather Cloud Vis
km
Sea
Height
m
Swell
Dir
 
Speed
knots
Gust
knots
hPa Trend Height
m
Period
s
Dir
19/02:00pm 18.4 SSE 14 19 1032.3 - 0.0 - Partly cloudy 10 - - - -
19/01:30pm 17.3 SSE 14 19 1032.6 - 0.0 - Cloudy 10 - - - -
19/01:00pm 17.0 SSE 15 19 1032.9 - 0.0 - Cloudy 10 - - - -
19/12:30pm 16.6 SSE 15 18 1033.3 - 0.0 - Partly cloudy 10 - - - -
19/12:00pm 16.7 SE 14 21 1033.7 R 0.0 - Partly cloudy 10 - - - -
19/11:30am 17.8 ESE 15 19 1033.6 - 0.0 - Partly cloudy 10 - - - -
19/11:00am 17.1 ESE 15 25 1033.7 - 0.0 - Partly cloudy 10 - - - -
19/10:58am 17.3 ESE 15 25 1033.7 - 0.0 - Partly cloudy 10 - - - -
19/10:30am 17.0 SE 15 20 1033.9 - 0.0 - Partly cloudy 10 - - - -
19/10:00am 16.0 SE 16 21 1033.8 - 0.0 - Partly cloudy 10 - - - -
19/09:30am 15.3 ESE 13 17 1033.5 - 0.0 - - 10 - - - -
19/09:00am 14.3 ESE 13 17 1033.1 R 0.4 - Mostly clear 10 - - - -
19/08:30am 14.2 ESE 15 21 1032.6 - 0.4 - Cloudy 10 - - - -
19/08:00am 12.5 ESE 10 13 1032.1 - 0.4 - Partly cloudy 10 - - - -
19/07:30am 11.9 ESE 8 10 1031.4 - 0.4 - Partly cloudy 10 - - - -
19/07:00am 10.7 E 9 10 1030.9 - 0.4 - Partly cloudy 10 - - - -
19/06:30am 11.3 E 9 11 1030.5 - 0.4 - - 10 - - - -
19/06:00am 12.0 ESE 9 11 1030.3 R 0.4 - Mostly cloudy 10 - - - -
19/05:30am 12.1 ESE 6 8 1029.9 - 0.4 - Cloudy 10 - - - -
19/05:00am 12.0 ESE 7 8 1029.4 - 0.4 - Cloudy 10 - - - -
19/04:30am 12.5 SE 7 9 1029.2 - 0.4 - Partly cloudy 10 - - - -
19/04:00am 11.9 SE 7 8 1028.7 - 0.4 - Partly cloudy 10 - - - -
19/03:30am 12.0 SE 7 9 1028.6 - 0.4 - Partly cloudy 10 - - - -
19/03:00am 12.4 SE 9 10 1028.4 R 0.4 - - 10 - - - -
19/02:30am 12.9 SE 8 10 1028.3 - 0.4 - Partly cloudy 10 - - - -
19/02:00am 12.5 SE 6 9 1028.3 - 0.4 - - 10 - - - -
19/01:30am 14.3 SE 10 13 1028.2 - 0.4 - Partly cloudy 10 - - - -
19/01:00am 14.7 SE 10 13 1028.0 - 0.4 - Partly cloudy 10 - - - -
19/12:30am 14.9 SE 12 16 1027.8 - 0.4 - Partly cloudy 10 - - - -
19/12:00am 15.6 SSE 13 17 1027.6 R 0.4 - Cloudy 10 - - - -
 
Date/Time
CST
Temp

°C
Wind Pressure Rain
since 9am
mm
Weather Cloud Vis
km
Sea
Height
m
Swell
Dir
 
Speed
knots
Gust
knots
hPa Trend Height
m
Period
s
Dir
18/11:30pm 15.8 S 12 17 1027.5 - 0.4 - Cloudy 10 - - - -
18/11:00pm 15.8 SSE 15 19 1027.2 - 0.4 - Partly cloudy 10 - - - -
18/10:30pm 15.6 SSE 13 17 1027.1 - 0.4 - Cloudy 10 - - - -
18/10:00pm 15.3 SSE 12 17 1026.8 - 0.4 - Partly cloudy 10 - - - -
18/09:36pm 14.5 SSE 11 15 1026.7 - 0.4 - Partly cloudy 9 - - - -
18/09:30pm 14.4 SSE 14 21 1026.6 - 0.4 - Partly cloudy 7 - - - -
18/09:19pm 14.6 SSE 16 23 1026.5 - 0.4 - Partly cloudy 5 - - - -
18/09:00pm 15.0 SSE 13 19 1026.1 R 0.4 - Cloudy 9 - - - -
18/08:30pm 15.3 SSE 14 20 1025.5 - 0.4 - Partly cloudy 10 - - - -
18/08:20pm 15.2 SSE 15 21 1025.2 - 0.4 - Partly cloudy 10 - - - -
18/08:17pm 15.1 SSE 13 21 1025.2 - 0.4 - Partly cloudy 10 - - - -
18/08:00pm 15.2 SSE 13 21 1025.0 - 0.4 - Partly cloudy 5 - - - -
18/07:58pm 15.3 SSE 14 19 1025.0 - 0.4 - Partly cloudy 5 - - - -
18/07:55pm 15.4 SSE 15 19 1024.9 - 0.2 - Partly cloudy 5 - - - -
18/07:30pm 15.6 SSE 11 15 1024.4 - 0.2 - Partly cloudy 10 - - - -
18/07:00pm 15.6 S 15 18 1023.8 - 0.2 - Partly cloudy 10 - - - -
18/06:51pm 15.6 S 15 21 1023.7 - 0.2 - Partly cloudy 10 - - - -
18/06:37pm 15.7 S 18 22 1023.4 - 0.2 - Partly cloudy 6 - - - -
18/06:32pm 15.8 S 17 23 1023.3 - 0.2 - Partly cloudy 7 - - - -
18/06:30pm 15.8 S 17 23 1023.3 - 0.2 - Partly cloudy 8 - - - -
18/06:20pm 16.3 S 17 23 1023.0 - 0.2 - Partly cloudy 9 - - - -
18/06:00pm 16.8 SW 13 16 1022.8 R 0.0 - Cloudy 10 - - - -
18/05:30pm 18.7 WSW 10 13 1022.3 - 0.0 - Partly cloudy 10 - - - -
18/05:00pm 18.7 WSW 13 18 1022.1 - 0.0 - Partly cloudy 10 - - - -
18/04:30pm 19.8 WSW 14 18 1022.0 - 0.0 - Partly cloudy 10 - - - -
18/04:00pm 20.2 WSW 14 19 1021.9 - 0.0 - Partly cloudy 10 - - - -
18/03:30pm 20.2 WSW 14 20 1021.7 - 0.0 - Cloudy 10 - - - -
18/03:00pm 20.1 WSW 16 20 1021.6 R 0.0 - Partly cloudy 10 - - - -
18/02:30pm 20.7 WSW 14 19 1021.4 - 0.0 - Partly cloudy 10 - - - -
18/02:00pm 20.4 W 14 19 1021.6 - 0.0 - Partly cloudy 10 - - - -
18/01:30pm 20.8 WSW 15 19 1021.7 - 0.0 - Cloudy 10 - - - -
18/01:00pm 19.9 W 13 17 1022.0 - 0.0 - Cloudy 10 - - - -
18/12:30pm 20.6 W 13 17 1022.2 - 0.0 - Partly cloudy 10 - - - -
18/12:00pm 19.7 WSW 12 17 1022.4 R 0.0 - Mostly cloudy 10 - - - -
18/11:30am 19.5 W 12 14 1022.4 - 0.0 - Cloudy 10 - - - -
18/11:00am 19.2 W 13 18 1022.4 - 0.0 - Cloudy 10 - - - -
18/10:30am 19.1 W 9 14 1022.4 - 0.0 - Cloudy 10 - - - -
18/10:00am 18.4 WNW 7 10 1022.4 - 0.0 - Cloudy 10 - - - -
18/09:30am 17.6 W 8 10 1022.5 - 0.0 - Partly cloudy 10 - - - -
18/09:00am 17.3 NW 5 7 1022.2 R 0.0 - Mostly cloudy 10 - - - -
18/08:30am 16.3 WNW 7 9 1021.8 - 0.0 - Cloudy 10 - - - -
18/08:00am 14.2 NNW 4 6 1021.3 - 0.0 - Cloudy 10 - - - -
18/07:30am 13.6 NNW 5 7 1021.1 - 0.0 - Cloudy 10 - - - -
18/07:00am 14.1 NNW 3 7 1021.0 - 0.0 - Cloudy 10 - - - -
18/06:30am 15.0 W 7 8 1020.8 - 0.0 - Partly cloudy 10 - - - -
18/06:00am 15.2 W 7 9 1020.4 R 0.0 - Partly cloudy 10 - - - -
18/05:30am 15.8 W 7 8 1020.1 - 0.0 - Cloudy 10 - - - -
18/05:00am 15.8 W 9 12 1019.8 - 0.0 - Cloudy 10 - - - -
18/04:30am 16.0 W 9 12 1019.6 - 0.0 - Cloudy 10 - - - -
18/04:00am 15.9 W 8 11 1019.4 - 0.0 - Cloudy 10 - - - -
18/03:30am 15.7 WSW 7 9 1019.2 - 0.0 - Partly cloudy 10 - - - -
18/03:00am 16.6 SW 8 12 1019.2 F 0.0 - Cloudy 10 - - - -
18/02:30am 16.7 SW 7 9 1019.3 - 0.0 - Cloudy 10 - - - -
18/02:00am 16.6 SW 8 11 1019.6 - 0.0 - Cloudy 10 - - - -
18/01:30am 16.4 SW 9 11 1019.9 - 0.0 - Partly cloudy 10 - - - -
18/01:00am 15.8 SW 10 13 1019.9 - 0.0 - Partly cloudy 10 - - - -
18/12:30am 16.0 SW 9 11 1020.1 - 0.0 - Partly cloudy 10 - - - -
18/12:00am 16.4 SW 10 13 1020.4 F 0.0 - Partly cloudy 10 - - - -
 
Date/Time
CST
Temp

°C
Wind Pressure Rain
since 9am
mm
Weather Cloud Vis
km
Sea
Height
m
Swell
Dir
 
Speed
knots
Gust
knots
hPa Trend Height
m
Period
s
Dir
17/11:30pm 15.8 SW 7 11 1020.6 - 0.0 - Partly cloudy 10 - - - -
17/11:00pm 15.9 SSW 9 11 1021.0 - 0.0 - - 10 - - - -
17/10:30pm 16.2 SSW 9 11 1021.1 - 0.0 - - 10 - - - -
17/10:00pm 16.6 SW 8 11 1021.1 - 0.0 - Partly cloudy 10 - - - -
17/09:30pm 17.0 SSW 9 12 1021.0 - 0.0 - Cloudy 10 - - - -
17/09:00pm 17.2 SW 8 10 1020.8 R 0.0 - Cloudy 10 - - - -
17/08:30pm 17.0 SSW 7 10 1020.8 - 0.0 - Partly cloudy 10 - - - -
17/08:00pm 16.8 SSW 9 13 1020.6 - 0.0 - Partly cloudy 10 - - - -
17/07:30pm 17.1 SSW 11 15 1020.4 - 0.0 - Cloudy 10 - - - -
17/07:00pm 16.8 SSW 12 16 1020.2 - 0.0 - Partly cloudy 10 - - - -
17/06:30pm 17.3 SSW 9 13 1019.9 - 0.0 - Cloudy 10 - - - -
17/06:00pm 17.5 S 11 13 1019.7 R 0.0 - Mostly cloudy 10 - - - -
17/05:30pm 17.6 S 10 14 1019.4 - 0.0 - Partly cloudy 10 - - - -
17/05:00pm 18.1 S 9 13 1019.0 - 0.0 - Partly cloudy 10 - - - -
17/04:30pm 18.4 S 13 16 1019.1 - 0.0 - Partly cloudy 10 - - - -
17/04:00pm 18.2 S 12 16 1018.9 - 0.0 - Partly cloudy 10 - - - -
17/03:30pm 18.2 S 14 18 1018.9 - 0.0 - Partly cloudy 10 - - - -
17/03:00pm 18.3 S 13 19 1018.9 R 0.0 - Cloudy 10 - - - -
17/02:30pm 19.2 S 13 17 1018.7 - 0.0 - Partly cloudy 10 - - - -
17/02:00pm 18.9 S 12 17 1018.8 - 0.0 - Partly cloudy 10 - - - -
17/01:30pm 19.3 S 14 18 1019.1 - 0.0 - Partly cloudy 10 - - - -
17/01:00pm 19.3 S 13 17 1019.5 - 0.0 - Partly cloudy 10 - - - -
17/12:30pm 19.2 S 14 17 1019.9 - 0.0 - Partly cloudy 10 - - - -
17/12:00pm 18.8 S 12 16 1020.3 F 0.0 - Cloudy 10 - - - -
17/11:30am 19.6 S 13 17 1020.6 - 0.0 - Partly cloudy 10 - - - -
17/11:00am 18.5 S 12 16 1021.1 - 0.0 - Partly cloudy 10 - - - -
17/10:30am 18.0 S 12 16 1021.3 - 0.0 - Partly cloudy 10 - - - -
17/10:00am 17.2 SSE 10 13 1021.5 - 0.0 - Partly cloudy 10 - - - -
17/09:30am 17.2 SSE 11 14 1021.8 - 0.0 - Partly cloudy 10 - - - -
17/09:00am 16.8 SSE 12 16 1021.8 F 34.4 - Mostly clear 10 - - - -
17/08:30am 16.0 SSE 11 15 1021.7 - 34.4 - Partly cloudy 10 - - - -
17/08:00am 15.8 SE 9 13 1021.7 - 34.4 - Partly cloudy 10 - - - -
17/07:30am 15.5 SSE 9 12 1021.5 - 34.4 - Partly cloudy 10 - - - -
17/07:00am 15.7 SSE 8 11 1021.2 - 34.4 - Partly cloudy 10 - - - -
17/06:30am 15.6 S 8 11 1021.0 - 34.4 - Partly cloudy 10 - - - -
17/06:00am 15.3 SSE 7 11 1020.8 S 34.4 - Cloudy 10 - - - -
17/05:30am 15.0 SSE 8 11 1020.3 - 34.4 - Partly cloudy 10 - - - -
17/05:05am 15.1 SSE 9 11 1020.4 - 34.4 - Partly cloudy 10 - - - -
17/05:00am 15.1 SSE 9 11 1020.4 - 34.4 - Partly cloudy 10 - - - -
17/04:32am 15.1 SSE 6 9 1020.2 - 34.4 - Partly cloudy 10 - - - -
17/04:30am 15.1 SSE 6 7 1020.2 - 34.4 - Partly cloudy 10 - - - -
17/04:00am 14.6 SSE 5 7 1019.9 - 34.4 - Partly cloudy 10 - - - -
17/03:30am 14.6 SSE 8 11 1019.9 - 34.4 - Partly cloudy 10 - - - -
17/03:24am 14.7 SSE 9 11 1019.9 - 34.4 - Partly cloudy 10 - - - -
17/03:00am 15.1 SE 10 13 1020.2 F 34.4 - Cloudy 10 - - - -
17/02:30am 15.3 SE 10 13 1020.5 - 34.4 - Partly cloudy 10 - - - -
17/02:18am 15.3 SE 8 11 1020.7 - 34.4 - Partly cloudy 10 - - - -
17/02:00am 15.4 SSE 10 13 1021.0 - 34.4 - Partly cloudy 10 - - - -
17/01:47am 15.4 SSE 9 13 1021.0 - 34.4 - Partly cloudy 10 - - - -
17/01:30am 15.6 SSE 10 13 1021.1 - 34.4 - Partly cloudy 10 - - - -
17/01:00am 15.6 SE 9 12 1021.3 - 34.4 - Partly cloudy 10 - - - -
17/12:33am 15.8 SSE 9 13 1021.6 - 34.4 - Partly cloudy 10 - - - -
17/12:30am 15.8 SSE 9 13 1021.7 - 34.4 - Partly cloudy 10 - - - -
17/12:10am 15.8 SSE 11 14 1021.8 - 34.4 - Partly cloudy 10 - - - -
17/12:00am 15.8 SSE 10 13 1021.9 F 34.4 - Cloudy 10 - - - -
 
Date/Time
CST
Temp

°C
Wind Pressure Rain
since 9am
mm
Weather Cloud Vis
km
Sea
Height
m
Swell
Dir
 
Speed
knots
Gust
knots
hPa Trend Height
m
Period
s
Dir
16/11:59pm 15.8 SSE 10 13 1021.9 - 34.4 - Partly cloudy 10 - - - -
16/11:35pm 15.9 SSE 12 17 1022.0 - 34.4 - Partly cloudy 10 - - - -
16/11:30pm 15.9 SSE 13 17 1021.9 - 34.4 - Partly cloudy 10 - - - -
16/11:02pm 15.8 SSE 12 16 1022.4 - 34.4 - Partly cloudy 9 - - - -
16/11:00pm 15.8 SSE 12 17 1022.4 - 34.4 - Partly cloudy 7 - - - -
16/10:47pm 15.7 SSE 11 15 1022.4 - 34.4 - Partly cloudy 5 - - - -
16/10:38pm 15.8 SSE 13 17 1022.3 - 34.2 - Partly cloudy 5 - - - -
16/10:30pm 15.7 SSE 12 16 1022.5 - 34.2 - Cloudy 10 - - - -
16/10:15pm 15.6 SSE 13 17 1022.7 - 34.0 - Partly cloudy 10 - - - -
16/10:04pm 15.7 SSE 12 17 1022.6 - 34.0 - Partly cloudy 10 - - - -
16/10:00pm 15.7 SSE 11 14 1022.7 - 34.0 - Partly cloudy 10 - - - -
16/09:35pm 15.6 SSE 11 15 1022.5 - 34.0 - Partly cloudy 10 - - - -
16/09:30pm 15.6 SSE 11 15 1022.6 - 33.8 - Partly cloudy 10 - - - -
16/09:00pm 15.7 SSE 10 14 1022.5 R 32.8 Rain Cloudy 10 - - - -
16/08:59pm 15.7 SSE 9 14 1022.5 - 32.6 - Partly cloudy 10 - - - -
16/08:33pm 15.6 SSE 11 14 1022.3 - 32.0 - Partly cloudy 10 - - - -
16/08:30pm 15.5 SSE 12 16 1022.3 - 31.8 - Partly cloudy 10 - - - -
16/08:00pm 15.8 SSE 11 15 1022.1 - 30.6 - Partly cloudy 10 - - - -
16/07:37pm 16.0 SSE 9 12 1022.1 - 29.6 - Partly cloudy 10 - - - -
16/07:30pm 16.0 SSE 8 11 1022.2 - 29.4 - Partly cloudy 10 - - - -
16/07:00pm 15.7 SSE 9 12 1022.1 - 27.2 - Partly cloudy 7 - - - -
16/06:51pm 15.8 SSE 9 13 1021.9 - 26.2 - Partly cloudy 8 - - - -
16/06:38pm 15.8 SSE 11 15 1021.6 - 25.0 - Partly cloudy 5 - - - -
16/06:30pm 15.8 SE 12 15 1021.1 - 23.8 - Partly cloudy 5 - - - -
16/06:12pm 15.9 SSE 10 13 1021.4 - 21.2 - Partly cloudy 5 - - - -
16/06:02pm 15.9 SE 11 15 1021.2 - 19.8 - Partly cloudy 9 - - - -
16/06:00pm 15.9 SE 12 15 1021.1 F 19.6 Rain Cloudy 9 - - - -
16/05:56pm 15.9 SE 12 15 1020.9 - 19.4 - Partly cloudy 8 - - - -
16/05:48pm 16.1 SSE 11 15 1020.8 - 19.2 - Partly cloudy 6 - - - -
16/05:40pm 16.1 SSE 10 16 1021.1 - 18.4 - Partly cloudy 6 - - - -
16/05:31pm 16.6 SSE 8 11 1021.0 - 17.0 - Partly cloudy 5 - - - -
16/05:30pm 16.6 SSE 8 11 1021.0 - 16.8 - Partly cloudy 6 - - - -
16/05:25pm 16.6 SSE 8 10 1021.0 - 15.8 - Partly cloudy 7 - - - -
16/05:00pm 16.7 S 5 8 1021.4 - 12.2 - Partly cloudy 5 - - - -
16/04:50pm 16.7 SSE 7 10 1021.0 - 10.6 - Partly cloudy 10 - - - -
16/04:49pm 16.8 SSE 8 10 1021.0 - 10.4 - Partly cloudy 10 - - - -
16/04:37pm 16.7 S 6 9 1021.1 - 9.8 - Partly cloudy 10 - - - -
16/04:30pm 16.7 SSE 6 7 1021.1 - 9.6 - Partly cloudy 10 - - - -
16/04:00pm 16.6 SSE 6 8 1021.1 - 8.2 - Partly cloudy 10 - - - -
16/03:30pm 16.6 S 5 7 1021.5 - 6.8 - Partly cloudy 10 - - - -
16/03:15pm 16.5 S 7 9 1021.2 - 6.2 - Partly cloudy 10 - - - -
16/03:00pm 16.5 SSE 5 7 1021.8 R 5.6 Rain Cloudy 10 - - - -
16/02:55pm 16.5 SSE 6 7 1021.7 - 5.4 - Partly cloudy 10 - - - -
16/02:30pm 16.5 ESE 6 8 1021.7 - 4.8 - Partly cloudy 10 - - - -

Other Formats:

Comma delimited format used in spreadsheet applications
http://www.bom.gov.au/fwo/IDS60701/IDS60701.94653.axf

JavaScript Object Notation format (JSON) in row-major order
http://www.bom.gov.au/fwo/IDS60701/IDS60701.94653.json